createdAt,value
2018-07-23T00:00:14.090Z,95689.97
2018-07-23T00:02:43.231Z,95692.63
2018-07-23T00:05:12.335Z,95694.09
2018-07-23T00:07:41.441Z,95694.41
2018-07-23T00:10:10.539Z,95689.00
2018-07-23T00:12:39.648Z,95686.23
2018-07-23T00:15:09.131Z,95696.05
2018-07-23T00:17:38.692Z,95697.33
2018-07-23T00:20:07.792Z,95691.34
2018-07-23T00:22:36.854Z,95685.58
2018-07-23T00:25:05.968Z,95688.80
2018-07-23T00:27:35.068Z,95693.60
2018-07-23T00:30:04.712Z,95695.23
2018-07-23T00:32:33.872Z,95701.87
2018-07-23T00:35:02.976Z,95694.73
2018-07-23T00:37:32.039Z,95690.12
2018-07-23T00:40:01.134Z,95689.06
2018-07-23T00:42:30.201Z,95687.12
2018-07-23T00:44:59.304Z,95682.27
2018-07-23T00:47:28.353Z,95679.26
2018-07-23T00:49:57.465Z,95681.08
2018-07-23T00:52:26.579Z,95681.95
2018-07-23T00:54:55.664Z,95680.41
2018-07-23T00:57:25.009Z,95684.87
2018-07-23T00:59:54.073Z,95684.72
2018-07-23T01:02:23.146Z,95683.73
2018-07-23T01:04:52.260Z,95680.64
2018-07-23T01:07:21.340Z,95680.89
2018-07-23T01:09:50.876Z,95676.50
2018-07-23T01:12:34.596Z,95675.88
2018-07-23T01:15:03.703Z,95674.81
2018-07-23T01:17:32.780Z,95665.00
2018-07-23T01:20:01.889Z,95668.63
2018-07-23T01:22:30.968Z,95668.47
2018-07-23T01:25:00.090Z,95673.27
2018-07-23T01:27:29.192Z,95667.75
2018-07-23T01:29:58.319Z,95669.48
2018-07-23T01:32:27.465Z,95673.83
2018-07-23T01:34:56.582Z,95675.93
2018-07-23T01:37:25.673Z,95680.01
2018-07-23T01:39:54.721Z,95676.09
2018-07-23T01:42:23.836Z,95671.23
2018-07-23T01:44:52.920Z,95679.20
2018-07-23T01:47:22.046Z,95675.93
2018-07-23T01:49:51.115Z,95679.51
2018-07-23T01:52:20.293Z,95685.93
2018-07-23T01:54:49.705Z,95681.64
2018-07-23T01:57:18.785Z,95680.02
2018-07-23T01:59:47.846Z,95672.30
2018-07-23T02:02:16.953Z,95668.98
2018-07-23T02:04:46.319Z,95669.39
2018-07-23T02:07:15.430Z,95670.27
2018-07-23T02:09:44.505Z,95672.61
2018-07-23T02:12:13.593Z,95675.78
2018-07-23T02:14:42.672Z,95676.94
2018-07-23T02:17:11.832Z,95676.12
2018-07-23T02:19:40.913Z,95673.69
2018-07-23T02:22:10.003Z,95675.06
2018-07-23T02:24:39.089Z,95670.36
2018-07-23T02:27:08.197Z,95672.05
2018-07-23T02:29:37.284Z,95671.74
2018-07-23T02:32:06.530Z,95669.64
2018-07-23T02:34:35.628Z,95672.87
2018-07-23T02:37:05.019Z,95673.84
2018-07-23T02:39:34.148Z,95677.10
2018-07-23T02:42:03.224Z,95674.34
2018-07-23T02:44:32.347Z,95677.98
2018-07-23T02:47:01.447Z,95675.22
2018-07-23T02:49:30.628Z,95675.56
2018-07-23T02:51:59.740Z,95679.70
2018-07-23T02:54:28.856Z,95681.55
2018-07-23T02:56:57.911Z,95682.92
2018-07-23T02:59:27.007Z,95683.09
2018-07-23T03:01:56.100Z,95686.34
2018-07-23T03:04:25.216Z,95685.38
2018-07-23T03:06:54.258Z,95686.75
2018-07-23T03:09:23.416Z,95690.63
2018-07-23T03:11:52.491Z,95695.11
2018-07-23T03:14:21.589Z,95695.27
2018-07-23T03:16:50.694Z,95697.12
2018-07-23T03:19:19.779Z,95694.67
2018-07-23T03:21:48.920Z,95691.85
2018-07-23T03:24:17.977Z,95698.03
2018-07-23T03:26:47.080Z,95694.52
2018-07-23T03:29:16.183Z,95699.22
2018-07-23T03:31:45.245Z,95695.48
2018-07-23T03:34:14.390Z,95701.00
2018-07-23T03:36:43.549Z,95710.18
2018-07-23T03:39:12.677Z,95713.25
2018-07-23T03:41:41.804Z,95712.38
2018-07-23T03:44:10.876Z,95706.55
2018-07-23T03:46:40.042Z,95711.97
2018-07-23T03:49:10.581Z,95715.38
2018-07-23T03:51:39.641Z,95717.89
2018-07-23T03:54:08.791Z,95718.61
2018-07-23T03:56:37.893Z,95727.69
2018-07-23T03:59:07.209Z,95723.81
2018-07-23T04:01:36.313Z,95729.88
2018-07-23T04:04:05.417Z,95733.86
2018-07-23T04:06:34.603Z,95736.62
2018-07-23T04:09:04.708Z,95737.34
2018-07-23T04:11:33.781Z,95738.22
2018-07-23T04:14:02.845Z,95744.30
2018-07-23T04:16:31.973Z,95741.80
2018-07-23T04:19:01.039Z,95747.37
2018-07-23T04:21:30.158Z,95747.59
2018-07-23T04:23:59.256Z,95754.48
2018-07-23T04:26:28.537Z,95757.40
2018-07-23T04:28:57.636Z,95760.91
2018-07-23T04:31:26.696Z,95757.49
2018-07-23T04:33:55.757Z,95754.80
2018-07-23T04:36:25.280Z,95757.14
2018-07-23T04:38:54.340Z,95758.94
2018-07-23T04:41:23.376Z,95751.47
2018-07-23T04:43:52.610Z,95758.15
2018-07-23T04:46:21.776Z,95756.36
2018-07-23T04:48:50.871Z,95743.29
2018-07-23T04:51:19.950Z,95746.27
2018-07-23T04:53:49.049Z,95741.45
2018-07-23T04:56:18.143Z,95751.51
2018-07-23T04:58:48.234Z,95748.81
2018-07-23T05:01:17.406Z,95753.10
2018-07-23T05:03:46.532Z,95753.52
2018-07-23T05:06:15.619Z,95755.70
2018-07-23T05:08:44.850Z,95754.87
2018-07-23T05:11:13.877Z,95757.64
2018-07-23T05:13:43.054Z,95763.46
2018-07-23T05:16:12.121Z,95769.78
2018-07-23T05:18:41.341Z,95769.64
2018-07-23T05:21:10.386Z,95773.62
2018-07-23T05:23:39.645Z,95771.98
2018-07-23T05:26:08.831Z,95774.19
2018-07-23T05:28:37.944Z,95775.16
2018-07-23T05:31:07.129Z,95771.27
2018-07-23T05:33:36.276Z,95765.81
2018-07-23T05:36:05.337Z,95770.20
2018-07-23T05:38:34.517Z,95770.55
2018-07-23T05:41:03.600Z,95775.09
2018-07-23T05:43:32.666Z,95771.00
2018-07-23T05:46:01.766Z,95776.38
2018-07-23T05:48:30.820Z,95764.58
2018-07-23T05:50:59.918Z,95767.95
2018-07-23T05:53:28.973Z,95769.98
2018-07-23T05:55:58.185Z,95771.88
2018-07-23T05:58:27.504Z,95773.31
2018-07-23T06:00:56.695Z,95772.03
2018-07-23T06:03:25.757Z,95769.92
2018-07-23T06:05:54.921Z,95772.19
2018-07-23T06:08:24.025Z,95766.25
2018-07-23T06:10:53.113Z,95780.81
2018-07-23T06:13:22.261Z,95776.88
2018-07-23T06:15:51.353Z,95780.77
2018-07-23T06:18:20.474Z,95779.63
2018-07-23T06:20:49.653Z,95786.59
2018-07-23T06:23:18.781Z,95790.19
2018-07-23T06:25:47.924Z,95785.25
2018-07-23T06:28:17.093Z,95788.31
2018-07-23T06:30:46.169Z,95792.91
2018-07-23T06:33:15.298Z,95784.52
2018-07-23T06:35:44.499Z,95793.00
2018-07-23T06:38:13.656Z,95795.17
2018-07-23T06:40:43.419Z,95798.00
2018-07-23T06:43:12.551Z,95802.24
2018-07-23T06:45:42.029Z,95803.36
2018-07-23T06:48:11.108Z,95806.26
2018-07-23T06:50:40.302Z,95813.19
2018-07-23T06:53:09.412Z,95810.97
2018-07-23T06:55:38.500Z,95810.23
2018-07-23T06:58:07.662Z,95813.70
2018-07-23T07:00:36.842Z,95813.50
2018-07-23T07:03:06.124Z,95822.84
2018-07-23T07:05:35.222Z,95822.28
2018-07-23T07:08:04.350Z,95820.83
2018-07-23T07:10:33.442Z,95833.09
2018-07-23T07:13:02.552Z,95825.75
2018-07-23T07:15:31.633Z,95832.06
2018-07-23T07:18:00.729Z,95824.87
2018-07-23T07:20:29.804Z,95835.47
2018-07-23T07:22:58.977Z,95833.88
2018-07-23T07:25:28.105Z,95833.23
2018-07-23T07:27:57.156Z,95830.69
2018-07-23T07:30:26.289Z,95833.16
2018-07-23T07:32:55.452Z,95831.50
2018-07-23T07:35:24.577Z,95839.86
2018-07-23T07:37:53.721Z,95839.33
2018-07-23T07:40:22.766Z,95836.00
2018-07-23T07:42:52.600Z,95839.13
2018-07-23T07:45:21.660Z,95841.45
2018-07-23T07:47:50.766Z,95844.34
2018-07-23T07:50:19.825Z,95848.16
2018-07-23T07:52:48.957Z,95848.73
2018-07-23T07:55:18.073Z,95846.94
2018-07-23T07:57:47.179Z,95851.63
2018-07-23T08:00:16.363Z,95851.09
2018-07-23T08:02:45.508Z,95855.89
2018-07-23T08:05:14.605Z,95856.34
2018-07-23T08:07:43.725Z,95853.18
2018-07-23T08:10:12.829Z,95849.78
2018-07-23T08:12:41.974Z,95854.98
2018-07-23T08:15:11.082Z,95856.42
2018-07-23T08:17:40.165Z,95853.66
2018-07-23T08:20:09.249Z,95850.17
2018-07-23T08:22:38.355Z,95852.94
2018-07-23T08:25:07.477Z,95858.22
2018-07-23T08:27:36.536Z,95860.39
2018-07-23T08:30:06.831Z,95863.72
2018-07-23T08:32:35.872Z,95868.30
2018-07-23T08:35:04.959Z,95867.52
2018-07-23T08:37:34.039Z,95872.48
2018-07-23T08:40:03.254Z,95867.02
2018-07-23T08:42:32.450Z,95870.53
2018-07-23T08:45:01.547Z,95876.94
2018-07-23T08:47:30.608Z,95871.05
2018-07-23T08:49:59.686Z,95873.30
2018-07-23T08:52:28.774Z,95878.16
2018-07-23T08:54:57.923Z,95883.08
2018-07-23T08:57:27.538Z,95882.92
2018-07-23T08:59:56.625Z,95884.84
2018-07-23T09:02:25.750Z,95878.59
2018-07-23T09:04:54.838Z,95885.52
2018-07-23T09:07:23.922Z,95890.13
2018-07-23T09:09:52.982Z,95890.75
2018-07-23T09:12:22.063Z,95892.90
2018-07-23T09:14:51.144Z,95893.81
2018-07-23T09:17:20.237Z,95896.16
2018-07-23T09:19:49.282Z,95899.02
2018-07-23T09:22:18.356Z,95895.71
2018-07-23T09:24:47.461Z,95891.80
2018-07-23T09:27:16.607Z,95891.21
2018-07-23T09:29:45.725Z,95891.12
2018-07-23T09:32:14.822Z,95896.55
2018-07-23T09:34:43.917Z,95897.45
2018-07-23T09:37:13.338Z,95902.80
2018-07-23T09:39:42.399Z,95892.37
2018-07-23T09:42:11.490Z,95894.56
2018-07-23T09:44:40.600Z,95897.83
2018-07-23T09:47:09.665Z,95891.45
2018-07-23T09:49:38.960Z,95895.03
2018-07-23T09:52:08.087Z,95890.77
2018-07-23T09:54:37.216Z,95890.31
2018-07-23T09:57:06.497Z,95895.97
2018-07-23T09:59:35.608Z,95893.06
2018-07-23T10:02:04.725Z,95895.84
2018-07-23T10:04:33.822Z,95887.76
2018-07-23T10:07:02.914Z,95893.34
2018-07-23T10:09:32.004Z,95893.88
2018-07-23T10:12:01.116Z,95889.16
2018-07-23T10:14:30.212Z,95883.73
2018-07-23T10:16:59.303Z,95888.47
2018-07-23T10:19:28.374Z,95882.39
2018-07-23T10:21:57.474Z,95886.09
2018-07-23T10:24:26.584Z,95878.70
2018-07-23T10:26:55.681Z,95881.45
2018-07-23T10:29:24.893Z,95877.13
2018-07-23T10:31:53.905Z,95875.85
2018-07-23T10:34:23.025Z,95876.71
2018-07-23T10:36:52.193Z,95874.73
2018-07-23T10:39:21.281Z,95874.88
2018-07-23T10:41:50.369Z,95864.98
2018-07-23T10:44:19.489Z,95866.64
2018-07-23T10:46:48.825Z,95869.80
2018-07-23T10:49:17.913Z,95875.04
2018-07-23T10:51:47.013Z,95872.34
2018-07-23T10:54:16.077Z,95866.64
2018-07-23T10:56:45.260Z,95868.00
2018-07-23T10:59:14.339Z,95864.41
2018-07-23T11:01:43.436Z,95863.23
2018-07-23T11:04:12.528Z,95863.00
2018-07-23T11:06:41.681Z,95867.14
2018-07-23T11:09:10.735Z,95862.49
2018-07-23T11:11:39.832Z,95865.69
2018-07-23T11:14:09.002Z,95865.09
2018-07-23T11:16:38.215Z,95860.72
2018-07-23T11:19:07.517Z,95861.66
2018-07-23T11:21:36.628Z,95864.67
2018-07-23T11:24:05.906Z,95865.61
2018-07-23T11:26:36.048Z,95858.82
2018-07-23T11:29:05.081Z,95859.17
2018-07-23T11:31:34.235Z,95860.60
2018-07-23T11:34:03.360Z,95857.52
2018-07-23T11:36:32.531Z,95861.36
2018-07-23T11:39:01.830Z,95851.13
2018-07-23T11:41:30.998Z,95849.88
2018-07-23T11:44:00.067Z,95850.55
2018-07-23T11:46:29.196Z,95844.16
2018-07-23T11:48:58.404Z,95851.05
2018-07-23T11:51:27.460Z,95843.58
2018-07-23T11:53:56.669Z,95851.59
2018-07-23T11:56:25.808Z,95845.33
2018-07-23T11:58:54.902Z,95850.91
2018-07-23T12:01:24.062Z,95844.81
2018-07-23T12:03:53.164Z,95845.03
2018-07-23T12:06:22.296Z,95844.69
2018-07-23T12:08:51.458Z,95838.59
2018-07-23T12:11:20.558Z,95840.44
2018-07-23T12:13:49.929Z,95846.72
2018-07-23T12:16:19.024Z,95835.22
2018-07-23T12:18:48.259Z,95846.29
2018-07-23T12:21:17.355Z,95840.94
2018-07-23T12:23:46.442Z,95840.87
2018-07-23T12:26:15.546Z,95830.78
2018-07-23T12:28:44.689Z,95831.91
2018-07-23T12:31:13.938Z,95829.07
2018-07-23T12:33:43.105Z,95830.25
2018-07-23T12:36:12.159Z,95838.48
2018-07-23T12:38:41.313Z,95838.71
2018-07-23T12:41:10.349Z,95839.56
2018-07-23T12:43:39.477Z,95837.94
2018-07-23T12:46:08.851Z,95839.05
2018-07-23T12:48:37.953Z,95834.86
2018-07-23T12:51:07.117Z,95838.89
2018-07-23T12:53:36.188Z,95837.64
2018-07-23T12:56:07.471Z,95840.95
2018-07-23T12:58:40.193Z,95840.50
2018-07-23T13:01:09.574Z,95837.52
2018-07-23T13:03:38.670Z,95838.94
2018-07-23T13:06:07.829Z,95837.81
2018-07-23T13:08:36.904Z,95839.89
2018-07-23T13:11:06.108Z,95839.67
2018-07-23T13:13:35.169Z,95830.91
2018-07-23T13:16:04.253Z,95838.49
2018-07-23T13:18:36.315Z,95843.09
2018-07-23T13:21:05.369Z,95837.81
2018-07-23T13:23:34.451Z,95840.00
2018-07-23T13:26:03.656Z,95827.16
2018-07-23T13:28:32.709Z,95837.17
2018-07-23T13:31:01.791Z,95825.64
2018-07-23T13:33:30.893Z,95823.41
2018-07-23T13:36:00.208Z,95838.60
2018-07-23T13:38:29.345Z,95824.09
2018-07-23T13:40:58.496Z,95825.27
2018-07-23T13:43:27.631Z,95816.84
2018-07-23T13:45:56.748Z,95814.77
2018-07-23T13:48:25.808Z,95818.60
2018-07-23T13:50:54.994Z,95813.06
2018-07-23T13:53:24.082Z,95811.48
2018-07-23T13:55:53.189Z,95811.58
2018-07-23T13:58:22.253Z,95818.48
2018-07-23T14:00:51.379Z,95810.02
2018-07-23T14:03:21.587Z,95815.45
2018-07-23T14:05:50.690Z,95812.25
2018-07-23T14:08:19.905Z,95812.92
2018-07-23T14:10:48.945Z,95804.63
2018-07-23T14:13:18.156Z,95803.89
2018-07-23T14:15:47.274Z,95800.77
2018-07-23T14:18:16.461Z,95796.05
2018-07-23T14:20:45.525Z,95804.20
2018-07-23T14:23:14.581Z,95803.31
2018-07-23T14:25:43.676Z,95802.02
2018-07-23T14:28:12.782Z,95803.70
2018-07-23T14:30:41.867Z,95800.80
2018-07-23T14:33:11.002Z,95795.64
2018-07-23T14:35:40.144Z,95798.12
2018-07-23T14:38:09.249Z,95803.95
2018-07-23T14:40:38.324Z,95802.20
2018-07-23T14:43:07.423Z,95800.13
2018-07-23T14:45:36.470Z,95791.24
2018-07-23T14:48:05.574Z,95797.92
2018-07-23T14:50:34.640Z,95800.87
2018-07-23T14:53:03.838Z,95799.16
2018-07-23T14:55:32.946Z,95800.02
2018-07-23T14:58:02.104Z,95796.64
2018-07-23T15:00:31.236Z,95795.47
2018-07-23T15:03:00.310Z,95798.67
2018-07-23T15:05:29.524Z,95792.73
2018-07-23T15:07:58.625Z,95787.64
2018-07-23T15:10:27.713Z,95788.20
2018-07-23T15:12:56.796Z,95802.26
2018-07-23T15:15:25.898Z,95791.45
2018-07-23T15:17:54.970Z,95787.03
2018-07-23T15:20:24.112Z,95798.08
2018-07-23T15:22:53.174Z,95806.66
2018-07-23T15:25:22.369Z,95810.13
2018-07-23T15:27:51.423Z,95803.65
2018-07-23T15:30:20.814Z,95799.86
2018-07-23T15:32:49.926Z,95796.68
2018-07-23T15:35:19.056Z,95801.19
2018-07-23T15:37:48.173Z,95791.28
2018-07-23T15:40:17.323Z,95791.80
2018-07-23T15:42:46.481Z,95802.98
2018-07-23T15:45:15.715Z,95802.09
2018-07-23T15:47:44.737Z,95800.21
2018-07-23T15:50:13.833Z,95793.91
2018-07-23T15:52:42.891Z,95794.55
2018-07-23T15:55:11.963Z,95790.72
2018-07-23T15:57:41.108Z,95794.00
2018-07-23T16:00:10.295Z,95788.57
2018-07-23T16:02:39.389Z,95788.03
2018-07-23T16:05:08.463Z,95787.15
2018-07-23T16:07:37.640Z,95781.95
2018-07-23T16:10:06.832Z,95781.14
2018-07-23T16:12:35.904Z,95776.52
2018-07-23T16:15:06.313Z,95771.83
2018-07-23T16:20:19.040Z,95776.48
2018-07-23T16:22:48.161Z,95772.56
2018-07-23T16:25:17.292Z,95772.82
2018-07-23T16:27:46.416Z,95778.70
2018-07-23T16:30:15.527Z,95775.47
2018-07-23T16:32:44.844Z,95768.86
2018-07-23T16:35:14.080Z,95769.53
2018-07-23T16:37:43.244Z,95772.56
2018-07-23T16:40:12.414Z,95769.91
2018-07-23T16:42:41.509Z,95769.79
2018-07-23T16:45:10.596Z,95767.12
2018-07-23T16:47:39.715Z,95768.44
2018-07-23T16:50:08.785Z,95766.66
2018-07-23T16:52:37.901Z,95770.78
2018-07-23T16:55:07.049Z,95770.52
2018-07-23T16:57:36.151Z,95773.25
2018-07-23T17:00:06.098Z,95774.06
2018-07-23T17:02:35.171Z,95776.34
2018-07-23T17:05:04.393Z,95777.40
2018-07-23T17:07:33.457Z,95778.67
2018-07-23T17:10:02.641Z,95784.49
2018-07-23T17:12:31.709Z,95784.18
2018-07-23T17:15:00.888Z,95780.79
2018-07-23T17:17:29.945Z,95790.30
2018-07-23T17:19:59.025Z,95797.43
2018-07-23T17:22:28.120Z,95794.54
2018-07-23T17:24:57.241Z,95794.53
2018-07-23T17:27:26.451Z,95798.84
2018-07-23T17:29:55.653Z,95798.47
2018-07-23T17:32:24.844Z,95787.73
2018-07-23T17:34:57.572Z,95796.24
2018-07-23T17:37:27.229Z,95802.28
2018-07-23T17:39:56.331Z,95797.28
2018-07-23T17:42:25.507Z,95790.89
2018-07-23T17:44:54.646Z,95794.33
2018-07-23T17:47:24.921Z,95807.34
2018-07-23T17:49:53.993Z,95826.52
2018-07-23T17:52:23.097Z,95835.84
2018-07-23T17:54:52.156Z,95839.19
2018-07-23T17:57:21.310Z,95844.31
2018-07-23T17:59:50.407Z,95853.84
2018-07-23T18:02:19.653Z,95864.14
2018-07-23T18:04:48.804Z,95857.15
2018-07-23T18:07:17.951Z,95863.25
2018-07-23T18:09:47.036Z,95869.97
2018-07-23T18:12:16.154Z,95861.77
2018-07-23T18:14:45.209Z,95863.45
2018-07-23T18:17:14.929Z,95861.39
2018-07-23T18:19:44.002Z,95863.61
2018-07-23T18:22:13.075Z,95864.31
2018-07-23T18:24:42.188Z,95864.07
2018-07-23T18:27:11.424Z,95861.02
2018-07-23T18:29:40.496Z,95863.26
2018-07-23T18:32:09.587Z,95859.87
2018-07-23T18:34:38.636Z,95860.50
2018-07-23T18:37:07.779Z,95851.80
2018-07-23T18:39:36.869Z,95854.95
2018-07-23T18:42:05.907Z,95860.50
2018-07-23T18:44:35.078Z,95858.54
2018-07-23T18:47:04.267Z,95859.55
2018-07-23T18:49:45.921Z,95854.91
2018-07-23T18:52:15.610Z,95853.36
2018-07-23T18:54:46.361Z,95857.98
2018-07-23T18:57:15.441Z,95862.04
2018-07-23T18:59:44.544Z,95862.75
2018-07-23T19:02:14.771Z,95867.16
2018-07-23T19:04:43.828Z,95867.30
2018-07-23T19:07:12.981Z,95863.36
2018-07-23T19:09:42.345Z,95870.72
2018-07-23T19:12:12.007Z,95870.27
2018-07-23T19:14:41.133Z,95870.52
2018-07-23T19:17:11.651Z,95873.32
2018-07-23T19:19:40.827Z,95874.50
2018-07-23T19:22:09.931Z,95880.53
2018-07-23T19:24:39.075Z,95881.21
2018-07-23T19:27:08.190Z,95887.92
2018-07-23T19:29:37.338Z,95892.73
2018-07-23T19:32:06.467Z,95894.29
2018-07-23T19:34:35.572Z,95893.47
2018-07-23T19:37:04.673Z,95898.53
2018-07-23T19:39:33.814Z,95898.49
2018-07-23T19:42:02.956Z,95903.72
2018-07-23T19:44:32.003Z,95909.61
2018-07-23T19:47:01.100Z,95909.61
2018-07-23T19:49:30.145Z,95911.02
2018-07-23T19:51:59.285Z,95921.75
2018-07-23T19:54:28.357Z,95910.09
2018-07-23T19:56:57.460Z,95912.30
2018-07-23T19:59:26.569Z,95908.57
2018-07-23T20:01:55.649Z,95910.66
2018-07-23T20:04:24.820Z,95913.19
2018-07-23T20:06:53.944Z,95912.95
2018-07-23T20:09:23.009Z,95919.08
2018-07-23T20:11:52.118Z,95917.36
2018-07-23T20:14:21.250Z,95919.56
2018-07-23T20:16:50.349Z,95916.66
2018-07-23T20:19:19.476Z,95917.92
2018-07-23T20:21:48.496Z,95914.02
2018-07-23T20:24:17.902Z,95914.83
2018-07-23T20:26:46.972Z,95916.91
2018-07-23T20:29:16.102Z,95916.88
2018-07-23T20:31:45.266Z,95918.51
2018-07-23T20:34:14.346Z,95911.67
2018-07-23T20:36:43.551Z,95915.59
2018-07-23T20:39:12.612Z,95911.77
2018-07-23T20:41:41.705Z,95905.30
2018-07-23T20:44:10.796Z,95904.23
2018-07-23T20:46:39.893Z,95900.53
2018-07-23T20:49:09.005Z,95898.56
2018-07-23T20:51:38.093Z,95900.77
2018-07-23T20:54:07.193Z,95894.73
2018-07-23T20:56:36.503Z,95891.55
2018-07-23T20:59:05.761Z,95894.07
2018-07-23T21:01:34.837Z,95898.12
2018-07-23T21:04:04.075Z,95893.15
2018-07-23T21:06:33.215Z,95891.31
2018-07-23T21:09:02.217Z,95886.16
2018-07-23T21:11:31.266Z,95888.73
2018-07-23T21:14:00.341Z,95884.33
2018-07-23T21:16:29.445Z,95882.94
2018-07-23T21:18:58.542Z,95883.48
2018-07-23T21:21:27.620Z,95881.03
2018-07-23T21:23:56.710Z,95875.94
2018-07-23T21:26:25.856Z,95867.19
2018-07-23T21:28:54.986Z,95872.58
2018-07-23T21:31:24.070Z,95868.52
2018-07-23T21:33:53.170Z,95871.08
2018-07-23T21:36:22.227Z,95867.86
2018-07-23T21:38:51.378Z,95863.55
2018-07-23T21:41:20.680Z,95869.44
2018-07-23T21:43:49.793Z,95871.15
2018-07-23T21:46:18.861Z,95870.47
2018-07-23T21:48:48.200Z,95873.40
2018-07-23T21:51:17.276Z,95873.45
2018-07-23T21:53:46.375Z,95877.77
2018-07-23T21:56:15.496Z,95876.36
2018-07-23T21:58:44.603Z,95875.92
2018-07-23T22:01:13.680Z,95881.70
2018-07-23T22:03:42.751Z,95880.84
2018-07-23T22:06:11.956Z,95878.70
2018-07-23T22:08:41.224Z,95880.16
2018-07-23T22:11:10.313Z,95877.37
2018-07-23T22:13:39.374Z,95876.53
2018-07-23T22:16:08.553Z,95872.69
2018-07-23T22:18:37.609Z,95866.39
2018-07-23T22:21:06.729Z,95872.11
2018-07-23T22:23:35.817Z,95873.61
2018-07-23T22:26:05.715Z,95870.59
2018-07-23T22:28:34.817Z,95866.95
2018-07-23T22:31:03.976Z,95864.70
2018-07-23T22:33:33.081Z,95862.61
2018-07-23T22:36:02.195Z,95861.19
2018-07-23T22:38:31.275Z,95865.62
2018-07-23T22:41:00.460Z,95858.11
2018-07-23T22:43:29.509Z,95853.47
2018-07-23T22:45:58.604Z,95852.58
2018-07-23T22:48:27.692Z,95853.23
2018-07-23T22:50:56.794Z,95856.45
2018-07-23T22:53:25.868Z,95850.67
2018-07-23T22:55:55.204Z,95853.40
2018-07-23T22:58:24.252Z,95846.31
2018-07-23T23:00:53.308Z,95846.91
2018-07-23T23:03:22.420Z,95840.14
2018-07-23T23:05:51.476Z,95842.83
2018-07-23T23:08:20.555Z,95840.98
2018-07-23T23:10:49.787Z,95844.39
2018-07-23T23:13:18.905Z,95846.09
2018-07-23T23:15:47.993Z,95839.85
2018-07-23T23:18:17.171Z,95843.23
2018-07-23T23:20:46.233Z,95835.19
2018-07-23T23:23:15.345Z,95842.27
2018-07-23T23:25:44.517Z,95835.36
2018-07-23T23:28:13.625Z,95839.75
2018-07-23T23:30:42.700Z,95833.91
2018-07-23T23:33:11.781Z,95837.31
2018-07-23T23:35:40.848Z,95834.19
2018-07-23T23:38:10.319Z,95831.21
2018-07-23T23:40:39.393Z,95829.83
2018-07-23T23:43:08.497Z,95829.61
2018-07-23T23:45:37.619Z,95830.03
2018-07-23T23:48:06.830Z,95829.29
2018-07-23T23:50:35.924Z,95821.89
2018-07-23T23:53:05.004Z,95822.41
2018-07-23T23:55:34.220Z,95821.45
2018-07-23T23:58:03.374Z,95812.70
